Time;durP1;ratioP1;P1;durP2;ratioP2;P2;SDS_P1;SDS_P2;PMS_P1;PMS_P2;Temp;Humidity;BMP_temperature;BMP_pressure;BME280_temperature;BME280_humidity;BME280_pressure;Samples;Min_cycle;Max_cycle;Signal;HPM_P1;HPM_P2
2023/11/09 00:02:24;;;;;;;2.28;1.45;;;17.80;64.40;;;;;;5047760;28;20017;-65
2023/11/09 00:04:51;;;;;;;1.85;0.82;;;17.80;64.30;;;;;;5048389;28;20040;-65
2023/11/09 00:07:19;;;;;;;0.93;0.70;;;17.80;64.30;;;;;;5047456;28;20013;-64
2023/11/09 00:09:45;;;;;;;1.25;1.02;;;17.80;64.30;;;;;;5048249;28;20033;-66
2023/11/09 00:12:10;;;;;;;1.10;0.70;;;17.80;64.30;;;;;;5046042;28;20030;-63
2023/11/09 00:14:36;;;;;;;1.85;0.82;;;17.80;64.30;;;;;;5049529;28;20395;-65
2023/11/09 00:17:02;;;;;;;1.63;0.80;;;17.70;64.40;;;;;;5048801;28;20049;-65
2023/11/09 00:19:27;;;;;;;0.70;0.70;;;17.80;64.30;;;;;;5053672;28;20076;-66
2023/11/09 00:21:53;;;;;;;0.73;0.63;;;17.70;64.30;;;;;;5048026;28;20087;-64
2023/11/09 00:24:18;;;;;;;4.18;0.90;;;17.70;64.20;;;;;;5047951;28;20022;-65
2023/11/09 00:26:45;;;;;;;1.13;0.60;;;17.70;64.20;;;;;;5054834;28;20036;-66
2023/11/09 00:29:15;;;;;;;1.38;0.80;;;17.70;64.30;;;;;;5057351;28;20040;-65
2023/11/09 00:31:40;;;;;;;1.92;0.82;;;17.70;64.40;;;;;;5061246;28;20025;-66
2023/11/09 00:34:06;;;;;;;2.85;0.80;;;17.70;64.20;;;;;;5049899;28;20025;-64
2023/11/09 00:36:32;;;;;;;1.23;0.60;;;17.70;64.20;;;;;;5054684;28;20021;-65
2023/11/09 00:38:57;;;;;;;1.17;0.70;;;17.70;64.30;;;;;;5056372;28;20104;-66
2023/11/09 00:41:23;;;;;;;1.23;0.60;;;17.70;64.30;;;;;;5054446;28;20037;-65
2023/11/09 00:43:51;;;;;;;0.95;0.60;;;17.70;64.10;;;;;;5056403;28;20071;-65
2023/11/09 00:46:17;;;;;;;0.75;0.60;;;17.70;64.10;;;;;;5054113;28;20029;-65
2023/11/09 00:48:42;;;;;;;1.00;0.57;;;17.70;64.20;;;;;;5060322;28;20041;-66
2023/11/09 00:51:08;;;;;;;1.67;0.90;;;17.70;64.20;;;;;;5050446;28;20091;-64
2023/11/09 00:53:35;;;;;;;2.03;0.60;;;17.70;64.40;;;;;;5059020;28;20092;-67
2023/11/09 00:56:01;;;;;;;0.93;0.60;;;17.70;64.10;;;;;;5057154;28;20040;-65
2023/11/09 00:58:26;;;;;;;0.70;0.50;;;17.70;64.20;;;;;;5049839;28;20037;-65
2023/11/09 01:00:52;;;;;;;0.88;0.60;;;17.70;64.30;;;;;;5055579;28;20051;-65
2023/11/09 01:03:17;;;;;;;0.52;0.52;;;17.70;64.10;;;;;;5051171;28;20029;-66
2023/11/09 01:05:43;;;;;;;1.40;0.77;;;17.70;64.10;;;;;;5050286;28;20116;-66
2023/11/09 01:08:08;;;;;;;2.50;0.80;;;17.70;64.20;;;;;;5052604;28;20021;-65
2023/11/09 01:10:35;;;;;;;1.00;0.50;;;17.70;64.10;;;;;;5055067;28;20399;-65
2023/11/09 01:13:01;;;;;;;0.90;0.70;;;17.70;64.10;;;;;;5055336;28;20050;-66
2023/11/09 01:15:26;;;;;;;1.05;0.40;;;17.60;64.10;;;;;;5059384;28;20836;-66
2023/11/09 01:18:06;;;;;;;0.60;0.57;;;17.70;64.10;;;;;;5049108;28;20037;-65
2023/11/09 01:20:32;;;;;;;1.40;0.50;;;17.70;64.20;;;;;;5059588;28;20549;-66
2023/11/09 01:22:58;;;;;;;1.17;0.75;;;17.70;64.10;;;;;;5049272;28;20372;-65
2023/11/09 01:25:24;;;;;;;1.52;0.60;;;17.70;64.10;;;;;;5051754;28;20032;-66
2023/11/09 01:27:49;;;;;;;1.33;0.60;;;17.70;64.20;;;;;;5057125;28;20060;-65
2023/11/09 01:30:15;;;;;;;1.42;0.60;;;17.70;64.20;;;;;;5049700;28;20317;-66
2023/11/09 01:32:41;;;;;;;1.42;0.50;;;17.70;64.20;;;;;;5050632;28;20114;-66
2023/11/09 01:35:07;;;;;;;1.10;0.63;;;17.70;64.10;;;;;;5050378;28;20045;-66
2023/11/09 01:37:34;;;;;;;0.45;0.45;;;17.70;64.10;;;;;;5051582;28;20112;-66
2023/11/09 01:40:00;;;;;;;1.60;0.57;;;17.60;64.10;;;;;;5056241;28;20025;-66
2023/11/09 01:42:25;;;;;;;1.13;0.60;;;17.60;64.10;;;;;;5059154;28;20100;-65
2023/11/09 01:44:51;;;;;;;0.60;0.55;;;17.60;64.00;;;;;;5052414;28;20033;-66
2023/11/09 01:47:16;;;;;;;1.90;0.90;;;17.70;64.10;;;;;;5052524;28;20029;-65
2023/11/09 01:49:43;;;;;;;1.35;0.70;;;17.70;64.10;;;;;;5044748;28;20025;-66
2023/11/09 01:52:09;;;;;;;0.60;0.40;;;17.70;64.10;;;;;;5048626;28;20051;-66
2023/11/09 01:54:35;;;;;;;0.75;0.45;;;17.70;63.90;;;;;;5051910;28;20028;-64
2023/11/09 01:57:02;;;;;;;1.23;0.70;;;17.70;63.90;;;;;;5052156;28;20025;-66
2023/11/09 01:59:30;;;;;;;0.38;0.35;;;17.70;64.00;;;;;;5045538;28;20055;-65
2023/11/09 02:01:57;;;;;;;0.85;0.45;;;17.70;63.90;;;;;;5044083;28;20042;-66
2023/11/09 02:04:24;;;;;;;0.75;0.52;;;17.70;63.90;;;;;;5043143;28;20029;-65
2023/11/09 02:06:53;;;;;;;1.02;0.65;;;17.70;63.90;;;;;;5042754;28;20033;-66
2023/11/09 02:09:20;;;;;;;1.15;0.50;;;17.70;63.90;;;;;;5045214;28;20033;-66
2023/11/09 02:11:46;;;;;;;0.75;0.60;;;17.70;63.90;;;;;;5048771;28;20033;-66
2023/11/09 02:14:13;;;;;;;1.52;0.40;;;17.70;63.80;;;;;;5050585;28;20029;-65
2023/11/09 02:16:39;;;;;;;0.60;0.40;;;17.70;63.80;;;;;;5052464;28;20047;-66
2023/11/09 02:19:05;;;;;;;1.02;0.55;;;17.80;63.90;;;;;;5050287;28;20414;-66
2023/11/09 02:21:32;;;;;;;1.50;0.57;;;17.70;63.70;;;;;;5048515;28;20044;-66
2023/11/09 02:24:00;;;;;;;0.90;0.60;;;17.70;63.60;;;;;;5048978;28;20534;-65
2023/11/09 02:26:26;;;;;;;0.98;0.73;;;17.80;63.80;;;;;;5048316;28;20028;-64
2023/11/09 02:28:54;;;;;;;1.15;0.68;;;17.80;63.90;;;;;;5053523;28;20158;-66
2023/11/09 02:31:20;;;;;;;0.70;0.60;;;17.80;63.70;;;;;;5052233;28;20403;-65
2023/11/09 02:33:45;;;;;;;0.77;0.63;;;17.70;63.80;;;;;;5049716;28;20036;-65
2023/11/09 02:36:11;;;;;;;0.85;0.50;;;17.80;63.70;;;;;;5047899;28;20112;-62
2023/11/09 02:38:37;;;;;;;1.73;0.80;;;17.80;63.60;;;;;;5054897;28;20029;-66
2023/11/09 02:41:02;;;;;;;0.90;0.40;;;17.70;63.70;;;;;;5052245;28;20506;-65
2023/11/09 02:43:28;;;;;;;0.75;0.50;;;17.80;63.60;;;;;;5051903;28;20048;-66
2023/11/09 02:45:57;;;;;;;0.90;0.52;;;17.80;63.80;;;;;;5052210;28;20039;-66
2023/11/09 02:48:23;;;;;;;0.70;0.47;;;17.80;63.70;;;;;;5055315;28;20517;-64
2023/11/09 02:50:49;;;;;;;1.05;0.47;;;17.80;63.60;;;;;;5048660;28;20063;-65
2023/11/09 02:53:14;;;;;;;0.68;0.40;;;17.70;63.60;;;;;;5052092;28;20025;-63
2023/11/09 02:55:40;;;;;;;1.70;0.75;;;17.70;63.60;;;;;;5048746;28;20534;-66
2023/11/09 02:58:06;;;;;;;1.90;0.60;;;17.70;63.60;;;;;;5052522;28;20049;-66
2023/11/09 03:00:31;;;;;;;0.95;0.40;;;17.80;63.60;;;;;;5050494;28;20064;-66
2023/11/09 03:02:57;;;;;;;1.25;0.88;;;17.70;63.50;;;;;;5055226;28;21249;-66
2023/11/09 03:05:22;;;;;;;0.98;0.70;;;17.80;63.60;;;;;;5047086;28;20064;-65
2023/11/09 03:07:48;;;;;;;0.70;0.50;;;17.80;63.60;;;;;;5047771;28;20025;-65
2023/11/09 03:10:15;;;;;;;0.55;0.40;;;17.80;63.60;;;;;;5030702;28;20060;-66
2023/11/09 03:12:41;;;;;;;0.90;0.50;;;17.70;63.60;;;;;;5048608;28;20056;-65
2023/11/09 03:15:09;;;;;;;0.60;0.50;;;17.70;63.50;;;;;;5046135;28;20043;-65
2023/11/09 03:17:37;;;;;;;1.30;0.50;;;17.70;63.70;;;;;;5046460;28;20043;-64
2023/11/09 03:20:04;;;;;;;0.70;0.52;;;17.70;63.70;;;;;;5049783;28;20096;-64
2023/11/09 03:22:30;;;;;;;1.50;0.40;;;17.70;63.70;;;;;;5050561;28;20028;-62
2023/11/09 03:24:55;;;;;;;0.75;0.50;;;17.70;63.70;;;;;;5052867;28;20021;-66
2023/11/09 03:27:21;;;;;;;0.60;0.55;;;17.70;63.50;;;;;;5049909;28;20029;-65
2023/11/09 03:29:46;;;;;;;1.00;0.40;;;17.70;63.60;;;;;;5046681;28;20033;-64
2023/11/09 03:32:12;;;;;;;1.58;0.60;;;17.70;63.60;;;;;;5050238;28;20056;-65
2023/11/09 03:34:37;;;;;;;1.30;0.65;;;17.70;63.50;;;;;;5062277;28;20025;-65
2023/11/09 03:37:03;;;;;;;1.27;0.55;;;17.70;63.60;;;;;;5050901;28;20308;-65
2023/11/09 03:39:32;;;;;;;1.27;0.57;;;17.70;63.60;;;;;;5050513;28;20033;-65
2023/11/09 03:41:58;;;;;;;0.77;0.50;;;17.70;63.60;;;;;;5044993;28;20406;-65
2023/11/09 03:44:23;;;;;;;1.02;0.50;;;17.70;63.60;;;;;;5047350;28;20101;-64
2023/11/09 03:46:51;;;;;;;0.95;0.60;;;17.70;63.60;;;;;;5053254;28;20040;-65
2023/11/09 03:49:16;;;;;;;0.55;0.50;;;17.60;63.60;;;;;;5051416;28;20037;-65
2023/11/09 03:51:41;;;;;;;1.02;0.63;;;17.70;63.60;;;;;;5050486;28;20033;-65
2023/11/09 03:54:07;;;;;;;1.10;0.73;;;17.60;63.60;;;;;;5051597;28;20037;-65
2023/11/09 03:56:33;;;;;;;1.50;0.60;;;17.70;63.70;;;;;;5053816;28;20402;-65
2023/11/09 03:58:58;;;;;;;0.85;0.43;;;17.70;63.70;;;;;;5049022;28;20603;-65
2023/11/09 04:01:24;;;;;;;0.93;0.50;;;17.60;63.50;;;;;;5050293;28;20083;-65
2023/11/09 04:03:49;;;;;;;0.77;0.57;;;17.70;63.70;;;;;;5053586;28;20123;-65
2023/11/09 04:06:16;;;;;;;0.77;0.40;;;17.70;63.60;;;;;;5053673;28;20061;-65
2023/11/09 04:08:42;;;;;;;0.85;0.50;;;17.60;63.80;;;;;;5050409;28;20407;-65
2023/11/09 04:11:08;;;;;;;1.00;0.55;;;17.60;63.70;;;;;;5053185;28;20041;-65
2023/11/09 04:13:34;;;;;;;0.85;0.60;;;17.60;63.70;;;;;;5053648;28;20040;-65
2023/11/09 04:16:00;;;;;;;1.13;0.50;;;17.60;63.70;;;;;;5050828;28;20115;-65
2023/11/09 04:18:25;;;;;;;1.20;0.68;;;17.60;63.70;;;;;;5052357;28;20090;-66
2023/11/09 04:20:51;;;;;;;1.58;0.65;;;17.60;63.60;;;;;;5054242;28;20037;-66
2023/11/09 04:23:16;;;;;;;1.20;0.50;;;17.60;63.60;;;;;;5049308;28;20068;-66
2023/11/09 04:25:42;;;;;;;1.75;0.60;;;17.60;63.70;;;;;;5056446;28;20041;-66
2023/11/09 04:28:08;;;;;;;0.80;0.50;;;17.60;63.70;;;;;;5054084;28;20114;-66
2023/11/09 04:30:33;;;;;;;0.65;0.57;;;17.60;63.70;;;;;;5052669;28;20029;-66
2023/11/09 04:32:59;;;;;;;0.85;0.50;;;17.60;63.60;;;;;;5053324;28;20107;-65
2023/11/09 04:35:25;;;;;;;0.98;0.55;;;17.60;63.60;;;;;;5052594;28;20226;-63
2023/11/09 04:37:54;;;;;;;2.60;0.52;;;17.60;63.60;;;;;;5049829;28;20029;-64
2023/11/09 04:40:22;;;;;;;1.38;0.45;;;17.60;63.50;;;;;;5050232;28;20045;-64
2023/11/09 04:42:49;;;;;;;0.88;0.50;;;17.60;63.50;;;;;;5050393;28;20029;-63
2023/11/09 04:45:16;;;;;;;1.00;0.57;;;17.60;63.60;;;;;;5055155;28;20025;-63
2023/11/09 04:47:47;;;;;;;0.60;0.43;;;17.60;63.60;;;;;;5052033;28;20098;-64
2023/11/09 04:50:17;;;;;;;0.75;0.45;;;17.60;63.50;;;;;;5052728;28;20032;-66
2023/11/09 04:52:56;;;;;;;0.75;0.57;;;17.60;63.40;;;;;;5049059;28;20037;-65
2023/11/09 04:55:31;;;;;;;1.27;0.52;;;17.60;63.50;;;;;;5052508;28;20021;-65
2023/11/09 05:08:53;;;;;;;0.80;0.65;;;17.60;63.50;;;;;;5053167;28;20037;-64
2023/11/09 05:11:19;;;;;;;0.88;0.60;;;17.60;63.50;;;;;;5050248;28;20403;-65
2023/11/09 05:13:44;;;;;;;1.08;0.43;;;17.60;63.60;;;;;;5052424;28;20037;-66
2023/11/09 05:16:10;;;;;;;0.80;0.55;;;17.60;63.50;;;;;;5050265;28;20025;-66
2023/11/09 05:18:38;;;;;;;1.13;0.50;;;17.60;63.60;;;;;;5050597;28;20570;-66
2023/11/09 05:21:04;;;;;;;0.70;0.40;;;17.60;63.60;;;;;;5051996;28;20029;-66
2023/11/09 05:23:30;;;;;;;1.88;0.40;;;17.60;63.50;;;;;;5050237;28;20064;-65
2023/11/09 05:25:55;;;;;;;1.45;0.60;;;17.60;63.60;;;;;;5050346;28;20558;-65
2023/11/09 05:28:21;;;;;;;0.60;0.40;;;17.60;63.50;;;;;;5048171;28;20078;-66
2023/11/09 05:30:50;;;;;;;1.10;0.50;;;17.60;63.60;;;;;;5050137;28;20033;-65
2023/11/09 05:33:17;;;;;;;0.85;0.50;;;17.60;63.60;;;;;;5048121;28;20325;-64
2023/11/09 05:35:42;;;;;;;1.17;0.63;;;17.60;63.50;;;;;;5051259;28;20036;-65
2023/11/09 05:38:10;;;;;;;0.85;0.57;;;17.60;63.40;;;;;;5051524;28;20037;-66
2023/11/09 05:40:35;;;;;;;0.88;0.50;;;17.60;63.50;;;;;;5049589;28;20135;-64
2023/11/09 05:43:01;;;;;;;0.93;0.47;;;17.60;63.40;;;;;;5053337;28;20499;-65
2023/11/09 05:45:26;;;;;;;0.60;0.43;;;17.60;63.40;;;;;;5050943;28;20029;-66
2023/11/09 05:47:52;;;;;;;1.13;0.50;;;17.60;63.40;;;;;;5048836;28;20047;-66
2023/11/09 05:50:17;;;;;;;1.20;0.70;;;17.50;63.40;;;;;;5050793;28;20060;-64
2023/11/09 05:52:43;;;;;;;1.00;0.45;;;17.60;63.40;;;;;;5050873;28;20033;-65
2023/11/09 05:55:09;;;;;;;1.38;0.65;;;17.60;63.40;;;;;;5052657;28;20447;-65
2023/11/09 05:57:36;;;;;;;0.77;0.50;;;17.60;63.40;;;;;;5049116;28;20064;-62
2023/11/09 06:00:05;;;;;;;0.73;0.50;;;17.60;63.40;;;;;;5049314;28;20056;-61
2023/11/09 06:02:31;;;;;;;1.58;0.50;;;17.50;63.20;;;;;;5048908;28;20511;-59
2023/11/09 06:04:56;;;;;;;1.73;0.82;;;17.60;63.30;;;;;;5050032;28;20041;-64
2023/11/09 06:07:22;;;;;;;2.17;0.90;;;17.60;63.40;;;;;;5047757;28;20033;-63
2023/11/09 06:09:48;;;;;;;1.65;0.57;;;17.60;63.40;;;;;;5050788;28;20075;-64
2023/11/09 06:12:15;;;;;;;1.05;0.63;;;17.60;63.40;;;;;;5043299;28;20040;-62
2023/11/09 06:14:41;;;;;;;4.18;1.30;;;17.60;63.60;;;;;;5046926;28;20025;-63
2023/11/09 06:17:07;;;;;;;10.45;5.18;;;17.60;63.60;;;;;;5048742;28;20075;-63
2023/11/09 06:19:33;;;;;;;11.30;4.18;;;17.60;63.70;;;;;;5044877;28;20087;-64
2023/11/09 06:21:58;;;;;;;8.27;4.30;;;17.60;63.80;;;;;;5045347;28;20587;-59
2023/11/09 06:24:24;;;;;;;9.02;3.42;;;17.60;63.90;;;;;;5043053;28;20067;-62
2023/11/09 06:26:53;;;;;;;10.68;4.75;;;17.60;63.90;;;;;;5044600;28;20141;-63
2023/11/09 06:29:19;;;;;;;8.18;3.38;;;17.60;63.80;;;;;;5044952;28;20446;-61
2023/11/09 06:31:45;;;;;;;7.90;3.30;;;17.50;64.40;;;;;;5045834;28;20033;-61
2023/11/09 06:34:14;;;;;;;10.13;3.55;;;17.50;63.80;;;;;;5046499;28;20025;-60
2023/11/09 06:36:43;;;;;;;8.98;2.92;;;17.50;63.80;;;;;;5045092;28;20398;-62
2023/11/09 06:39:16;;;;;;;9.85;2.67;;;17.50;63.80;;;;;;5046552;28;20572;-58
2023/11/09 06:41:44;;;;;;;4.60;2.40;;;17.50;63.70;;;;;;5043148;28;20645;-62
2023/11/09 06:44:09;;;;;;;6.55;2.58;;;17.50;63.70;;;;;;5047817;28;20426;-63
2023/11/09 06:46:37;;;;;;;6.65;2.80;;;17.50;63.80;;;;;;5046602;28;20040;-62
2023/11/09 06:49:03;;;;;;;8.50;2.45;;;17.50;63.90;;;;;;5050066;28;21020;-64
2023/11/09 06:51:29;;;;;;;11.65;3.65;;;17.50;63.90;;;;;;5050135;28;20573;-61
2023/11/09 06:53:55;;;;;;;7.50;2.40;;;17.50;63.90;;;;;;5047994;28;20029;-60
2023/11/09 06:56:20;;;;;;;5.82;2.50;;;17.50;63.90;;;;;;5046667;28;20029;-61
2023/11/09 06:58:46;;;;;;;6.78;2.90;;;17.50;63.90;;;;;;5043428;28;20040;-61
2023/11/09 07:01:11;;;;;;;12.07;2.95;;;17.60;64.00;;;;;;5043880;28;20041;-62
2023/11/09 07:03:37;;;;;;;8.57;2.85;;;17.60;64.00;;;;;;5044066;28;21277;-60
2023/11/09 07:06:02;;;;;;;5.53;2.08;;;17.60;64.00;;;;;;5043894;28;20037;-61
2023/11/09 07:08:28;;;;;;;20.95;2.45;;;17.60;63.90;;;;;;5043434;28;20120;-66
2023/11/09 07:10:54;;;;;;;12.50;3.03;;;17.60;64.00;;;;;;5048856;28;20324;-65
2023/11/09 07:13:20;;;;;;;38.63;18.80;;;17.60;64.30;;;;;;5046529;28;20118;-64
2023/11/09 07:15:47;;;;;;;66.70;28.15;;;17.60;64.70;;;;;;5047992;28;20036;-66
2023/11/09 07:18:14;;;;;;;63.63;26.80;;;17.70;64.40;;;;;;5047536;28;20033;-66
2023/11/09 07:20:41;;;;;;;67.90;27.48;;;17.70;64.20;;;;;;5046910;28;20116;-65
2023/11/09 07:23:07;;;;;;;58.25;23.48;;;17.70;64.00;;;;;;5047460;28;20064;-65
2023/11/09 07:25:33;;;;;;;48.53;20.45;;;17.70;63.80;;;;;;5047276;28;20372;-65
2023/11/09 07:27:59;;;;;;;45.65;20.25;;;17.70;63.60;;;;;;5046970;28;20958;-66
2023/11/09 07:30:31;;;;;;;45.88;21.35;;;17.70;63.40;;;;;;5047517;28;20187;-60
2023/11/09 07:32:58;;;;;;;67.82;31.42;;;17.70;63.20;;;;;;5048441;28;20056;-66
2023/11/09 07:35:24;;;;;;;65.80;30.33;;;17.70;63.00;;;;;;5049659;28;20040;-64
2023/11/09 07:37:50;;;;;;;65.55;29.20;;;17.70;63.20;;;;;;5051166;28;20063;-65
2023/11/09 07:40:16;;;;;;;60.25;25.52;;;17.70;62.90;;;;;;5052538;28;20500;-65
2023/11/09 07:42:43;;;;;;;56.63;23.67;;;17.70;62.70;;;;;;5049755;28;20513;-66
2023/11/09 07:45:10;;;;;;;41.55;20.52;;;17.70;62.50;;;;;;5052751;28;20068;-65
2023/11/09 07:47:36;;;;;;;41.08;18.88;;;17.70;62.30;;;;;;5050186;28;20021;-66
2023/11/09 07:50:02;;;;;;;43.30;18.80;;;17.70;61.90;;;;;;5051858;28;20375;-65
2023/11/09 07:52:27;;;;;;;34.15;15.98;;;17.70;62.10;;;;;;5049360;28;20044;-65
2023/11/09 07:54:54;;;;;;;32.97;16.90;;;17.70;62.10;;;;;;5051243;28;20519;-64
2023/11/09 07:57:19;;;;;;;32.25;15.40;;;17.60;62.20;;;;;;5049605;28;20025;-63
2023/11/09 07:59:45;;;;;;;30.25;13.63;;;17.70;62.30;;;;;;5049028;28;20098;-64
2023/11/09 08:02:12;;;;;;;33.42;12.82;;;17.60;62.30;;;;;;5052659;28;20032;-63
2023/11/09 08:04:39;;;;;;;32.63;12.65;;;17.70;62.50;;;;;;5054939;28;20028;-64
2023/11/09 08:07:05;;;;;;;22.02;10.93;;;17.70;62.30;;;;;;5052928;28;20029;-64
2023/11/09 08:09:31;;;;;;;19.67;9.90;;;17.70;62.30;;;;;;5054019;28;20044;-64
2023/11/09 08:11:57;;;;;;;21.23;10.45;;;17.70;62.40;;;;;;5048858;28;20122;-64
2023/11/09 08:14:22;;;;;;;25.83;10.65;;;17.70;62.30;;;;;;5049806;28;20064;-64
2023/11/09 08:16:48;;;;;;;19.05;9.20;;;17.70;62.60;;;;;;5049283;28;20029;-62
2023/11/09 08:19:13;;;;;;;19.02;8.80;;;17.70;62.50;;;;;;5049801;28;20391;-63
2023/11/09 08:21:39;;;;;;;18.23;8.95;;;17.70;62.50;;;;;;5049364;28;20048;-63
2023/11/09 08:24:06;;;;;;;21.88;8.77;;;17.70;63.10;;;;;;5049688;28;20036;-63
2023/11/09 08:26:32;;;;;;;15.27;7.90;;;17.60;62.50;;;;;;5048606;28;20029;-62
2023/11/09 08:28:58;;;;;;;21.40;8.20;;;17.60;62.30;;;;;;5054748;28;20087;-64
2023/11/09 08:31:25;;;;;;;17.92;8.45;;;17.70;62.70;;;;;;5049818;28;20032;-65
2023/11/09 08:33:54;;;;;;;16.95;7.55;;;17.60;63.00;;;;;;5054296;28;20053;-63
2023/11/09 08:36:20;;;;;;;14.73;7.90;;;17.70;63.20;;;;;;5046296;28;20025;-65
2023/11/09 08:38:45;;;;;;;18.67;7.78;;;17.70;63.30;;;;;;5048541;28;20033;-60
2023/11/09 08:41:11;;;;;;;14.45;7.25;;;17.60;63.30;;;;;;5059458;28;20045;-64
2023/11/09 08:43:37;;;;;;;16.65;7.28;;;17.70;63.40;;;;;;5058966;28;20086;-64
2023/11/09 08:46:03;;;;;;;13.35;6.18;;;17.60;63.40;;;;;;5048956;28;20091;-64
2023/11/09 08:48:32;;;;;;;14.40;6.53;;;17.70;63.40;;;;;;5055960;28;20055;-57
2023/11/09 08:51:00;;;;;;;11.93;6.10;;;17.70;63.40;;;;;;5053239;28;20025;-64
2023/11/09 08:53:31;;;;;;;14.02;6.35;;;17.70;63.40;;;;;;5053645;28;20047;-65
2023/11/09 08:56:00;;;;;;;13.38;6.05;;;17.70;63.40;;;;;;5050748;28;20045;-64
2023/11/09 08:58:27;;;;;;;11.90;6.25;;;17.70;63.50;;;;;;5053678;28;20448;-64
2023/11/09 09:01:01;;;;;;;10.93;5.22;;;17.70;63.50;;;;;;5051431;28;20053;-64
2023/11/09 09:03:27;;;;;;;16.30;5.55;;;17.70;63.50;;;;;;5043904;28;20535;-65
2023/11/09 09:05:55;;;;;;;9.07;4.38;;;17.80;63.60;;;;;;5043616;28;20539;-62
2023/11/09 09:08:23;;;;;;;15.02;5.57;;;17.70;63.60;;;;;;5044760;28;20059;-64
2023/11/09 09:10:50;;;;;;;10.93;4.80;;;17.80;63.60;;;;;;5044352;28;20033;-64
2023/11/09 09:13:16;;;;;;;9.50;5.15;;;17.70;63.60;;;;;;5051045;28;20025;-63
2023/11/09 09:15:45;;;;;;;10.02;5.40;;;17.80;63.60;;;;;;5055726;28;20040;-65
2023/11/09 09:18:10;;;;;;;9.40;4.60;;;17.70;63.60;;;;;;5048335;28;20483;-64
2023/11/09 09:20:38;;;;;;;8.23;4.55;;;17.80;63.70;;;;;;5048232;28;20045;-65
2023/11/09 09:23:04;;;;;;;7.85;4.03;;;17.70;63.60;;;;;;5047258;28;20021;-64
2023/11/09 09:25:30;;;;;;;9.40;4.72;;;17.70;63.60;;;;;;5048844;28;20752;-65
2023/11/09 09:27:55;;;;;;;8.15;3.70;;;17.80;63.70;;;;;;5051983;28;20033;-64
2023/11/09 09:30:22;;;;;;;7.80;4.03;;;17.80;63.70;;;;;;5036782;28;20026;-63
2023/11/09 09:32:50;;;;;;;10.23;4.32;;;17.80;63.80;;;;;;5064300;28;20039;-66
2023/11/09 09:35:20;;;;;;;6.97;3.75;;;17.80;63.80;;;;;;5051598;28;20551;-65
2023/11/09 09:37:46;;;;;;;10.13;4.18;;;17.80;63.80;;;;;;5045074;28;20478;-63
2023/11/09 09:40:19;;;;;;;6.72;3.58;;;17.70;63.80;;;;;;5044983;28;20049;-65
2023/11/09 09:42:50;;;;;;;6.38;3.10;;;17.80;63.90;;;;;;5043825;28;20060;-65
2023/11/09 09:45:26;;;;;;;6.82;3.45;;;17.80;63.90;;;;;;5044555;28;20029;-64
2023/11/09 09:47:57;;;;;;;6.65;3.67;;;17.80;63.90;;;;;;5047563;28;20479;-64
2023/11/09 09:50:30;;;;;;;6.72;3.00;;;17.80;63.90;;;;;;5051459;28;20033;-60
2023/11/09 09:52:57;;;;;;;7.90;3.53;;;17.80;64.00;;;;;;5049290;28;20148;-64
2023/11/09 09:55:27;;;;;;;5.63;3.38;;;17.80;64.00;;;;;;5048622;28;20041;-64
2023/11/09 09:57:57;;;;;;;5.78;3.05;;;17.80;64.10;;;;;;5051872;28;20036;-64
2023/11/09 10:00:26;;;;;;;6.10;2.85;;;17.80;64.10;;;;;;5046302;28;20048;-64
2023/11/09 10:02:55;;;;;;;6.70;2.90;;;17.80;64.10;;;;;;5046355;28;20047;-63
2023/11/09 10:05:25;;;;;;;6.35;3.25;;;17.80;64.20;;;;;;5041712;28;20588;-64
2023/11/09 10:08:01;;;;;;;5.55;3.42;;;17.80;64.20;;;;;;5043140;28;20106;-64
2023/11/09 10:10:27;;;;;;;7.25;3.00;;;17.80;64.20;;;;;;5043950;28;20033;-65
2023/11/09 10:12:57;;;;;;;4.82;3.00;;;17.80;64.20;;;;;;5044381;28;20100;-63
2023/11/09 10:15:24;;;;;;;3.83;2.42;;;17.80;64.20;;;;;;5043201;28;20029;-60
2023/11/09 10:17:51;;;;;;;4.47;2.63;;;17.80;64.20;;;;;;5042742;28;21114;-65
2023/11/09 10:20:17;;;;;;;4.43;2.35;;;17.80;64.20;;;;;;5039378;28;20647;-64
2023/11/09 10:22:44;;;;;;;4.35;2.60;;;17.90;64.30;;;;;;5040660;28;20037;-65
2023/11/09 10:25:12;;;;;;;4.97;2.60;;;17.80;64.30;;;;;;5043793;28;20426;-65
2023/11/09 10:27:38;;;;;;;3.97;2.17;;;17.80;64.30;;;;;;5044281;28;20523;-64
2023/11/09 10:30:06;;;;;;;5.85;2.17;;;17.80;64.30;;;;;;5045478;28;20036;-65
2023/11/09 10:32:36;;;;;;;4.57;1.95;;;17.80;64.30;;;;;;5043380;28;20032;-64
2023/11/09 10:35:05;;;;;;;3.63;2.10;;;17.80;64.20;;;;;;5049723;28;20112;-65
2023/11/09 10:37:33;;;;;;;6.72;2.47;;;17.90;64.20;;;;;;5049366;28;20032;-64
2023/11/09 10:40:04;;;;;;;2.97;1.80;;;17.90;64.20;;;;;;5054324;28;20036;-64
2023/11/09 10:42:30;;;;;;;2.92;1.80;;;17.90;64.20;;;;;;5047563;28;20106;-65
2023/11/09 10:44:57;;;;;;;5.38;2.08;;;17.80;64.20;;;;;;5048177;28;20273;-65
2023/11/09 10:47:24;;;;;;;4.20;1.70;;;17.90;64.30;;;;;;5045410;28;20116;-63
2023/11/09 10:49:53;;;;;;;2.97;2.00;;;17.80;64.30;;;;;;5045022;28;20247;-65
2023/11/09 10:52:23;;;;;;;4.35;1.98;;;17.80;64.20;;;;;;5047179;28;20025;-63
2023/11/09 10:54:50;;;;;;;3.75;1.75;;;17.80;64.10;;;;;;5045461;28;20033;-64
2023/11/09 10:57:18;;;;;;;2.25;1.50;;;17.80;64.10;;;;;;5048435;28;20037;-62
2023/11/09 10:59:48;;;;;;;2.45;1.90;;;17.90;64.10;;;;;;5047585;28;20056;-64
2023/11/09 11:02:19;;;;;;;3.25;1.42;;;17.80;64.10;;;;;;5045828;28;20086;-64
2023/11/09 11:04:49;;;;;;;2.47;1.58;;;17.80;64.10;;;;;;5052416;28;20173;-65
2023/11/09 11:07:18;;;;;;;4.47;1.58;;;17.80;64.10;;;;;;5045823;28;20114;-64
2023/11/09 11:09:45;;;;;;;3.08;1.77;;;17.80;64.10;;;;;;5046223;28;20044;-64
2023/11/09 11:12:13;;;;;;;5.53;1.60;;;17.80;64.10;;;;;;5048462;28;20088;-65
2023/11/09 11:14:41;;;;;;;2.72;1.60;;;17.80;64.10;;;;;;5046764;28;20086;-65
2023/11/09 11:17:22;;;;;;;4.05;2.03;;;17.80;64.10;;;;;;5045929;28;20045;-64
2023/11/09 11:20:28;;;;;;;3.88;1.63;;;17.80;64.10;;;;;;5046480;28;20040;-65
2023/11/09 11:23:08;;;;;;;1.40;1.00;;;17.80;64.20;;;;;;5043424;28;20032;-64
2023/11/09 11:25:50;;;;;;;2.22;1.48;;;17.80;64.20;;;;;;5048675;28;20025;-65
2023/11/09 11:28:18;;;;;;;5.22;1.42;;;17.80;64.10;;;;;;5045456;28;20021;-64
2023/11/09 11:30:44;;;;;;;2.13;1.10;;;17.90;64.30;;;;;;5048999;28;20218;-65
2023/11/09 11:33:16;;;;;;;2.78;1.25;;;17.80;64.20;;;;;;5044323;28;20029;-65
2023/11/09 11:35:46;;;;;;;3.92;1.17;;;17.80;64.20;;;;;;5041796;28;20029;-65
2023/11/09 11:38:20;;;;;;;2.47;1.30;;;17.90;64.30;;;;;;5055912;28;20021;-67
2023/11/09 11:40:49;;;;;;;3.58;1.67;;;17.90;64.30;;;;;;5043645;28;20055;-65
2023/11/09 11:43:15;;;;;;;2.67;1.45;;;17.90;64.30;;;;;;5039900;28;20044;-64
2023/11/09 11:45:41;;;;;;;5.43;1.50;;;17.90;64.30;;;;;;5044070;28;20434;-65
2023/11/09 11:48:25;;;;;;;1.98;1.60;;;17.90;64.20;;;;;;5040745;28;20032;-63
2023/11/09 11:50:51;;;;;;;2.88;1.10;;;17.90;64.20;;;;;;5039907;28;20032;-64
2023/11/09 11:53:31;;;;;;;2.63;1.33;;;17.90;64.20;;;;;;5044697;28;20059;-63
2023/11/09 11:56:05;;;;;;;2.35;1.27;;;17.90;64.20;;;;;;5040164;28;20060;-65
2023/11/09 11:58:46;;;;;;;3.13;1.25;;;17.90;64.20;;;;;;5043897;28;20086;-65
2023/11/09 12:01:18;;;;;;;3.05;1.42;;;17.90;64.20;;;;;;5040722;28;20037;-65
2023/11/09 12:03:47;;;;;;;1.95;1.25;;;17.90;64.20;;;;;;5031440;28;20120;-64
2023/11/09 12:06:13;;;;;;;1.88;1.23;;;17.90;64.20;;;;;;5047321;28;20083;-64
2023/11/09 12:08:41;;;;;;;1.30;1.15;;;17.90;64.10;;;;;;5058389;28;20417;-65
2023/11/09 12:11:09;;;;;;;2.60;1.10;;;17.90;64.10;;;;;;5044953;28;20033;-64
2023/11/09 12:13:35;;;;;;;2.22;1.10;;;17.90;64.20;;;;;;5045074;28;20024;-64
2023/11/09 12:16:02;;;;;;;2.00;1.10;;;17.90;64.20;;;;;;5047896;28;20210;-65
2023/11/09 12:18:27;;;;;;;1.83;0.90;;;17.90;64.20;;;;;;5047066;28;20021;-65
2023/11/09 12:20:54;;;;;;;1.83;1.00;;;17.90;64.30;;;;;;5046782;28;20459;-64
2023/11/09 12:23:23;;;;;;;1.30;0.90;;;17.90;64.20;;;;;;5050623;28;20025;-64
2023/11/09 12:25:52;;;;;;;2.03;0.90;;;17.90;64.20;;;;;;5049763;28;20060;-64
2023/11/09 12:28:19;;;;;;;1.02;0.82;;;17.90;64.20;;;;;;5046831;28;20029;-64
2023/11/09 12:30:48;;;;;;;1.70;1.00;;;17.90;64.10;;;;;;5051140;28;20048;-64
2023/11/09 12:33:14;;;;;;;3.20;1.38;;;17.90;64.10;;;;;;5050788;28;20029;-64
2023/11/09 12:36:04;;;;;;;1.50;1.05;;;17.90;64.20;;;;;;5049204;28;20079;-65
2023/11/09 12:38:33;;;;;;;3.78;1.30;;;17.90;64.10;;;;;;5052145;28;20100;-65
2023/11/09 12:41:01;;;;;;;1.20;0.98;;;17.90;64.10;;;;;;5048143;28;20036;-64
2023/11/09 12:43:39;;;;;;;1.25;0.88;;;17.90;64.10;;;;;;5052006;28;20120;-62
2023/11/09 12:46:14;;;;;;;1.50;1.00;;;17.90;64.10;;;;;;5049306;28;20116;-65
2023/11/09 12:48:46;;;;;;;1.42;0.98;;;17.90;64.10;;;;;;5049687;28;20396;-65
2023/11/09 12:51:21;;;;;;;2.25;1.02;;;17.90;64.10;;;;;;5049800;28;20050;-64
2023/11/09 12:53:50;;;;;;;1.17;1.00;;;17.90;64.00;;;;;;5048348;28;20029;-64
2023/11/09 12:56:19;;;;;;;1.02;0.77;;;17.90;64.10;;;;;;5046611;28;20041;-64